Terminal Aerodrome Forecast
Issued by NWS Charleston, WV

Current Version | Previous Version | Graphics & Text | Print | Product List | Glossary On
Versions: 1 2 3 4 5 6 7 8 9 10 11 12 13 14 15 16 17 18 19 20 21 22 23 24 25 26 27 28 29
000
FTUS41 KRLX 230718 AAA
TAFBKW
TAF AMD
KBKW 230718Z 2307/2406 25005KT 4SM SHRA BR BKN002 OVC006
     FM230800 28005KT 6SM BR BKN002 OVC005
     FM231000 30004KT 3SM BR BKN005
     FM231500 33006KT P6SM BKN030
     FM232000 32006KT P6SM SCT070
     FM240500 00000KT P6SM FEW100=

USA.gov is the U.S. government's official web portal to all federal, state and local government web resources and services.